createdAt,value
2022-10-01T00:00:04.343Z,7.15
2022-10-01T00:05:07.386Z,7.10
2022-10-01T00:10:11.070Z,7.21
2022-10-01T00:15:15.177Z,7.22
2022-10-01T00:20:17.741Z,7.18
2022-10-01T00:25:19.365Z,7.02
2022-10-01T00:30:21.666Z,7.04
2022-10-01T00:35:24.452Z,7.14
2022-10-01T00:40:26.178Z,7.12
2022-10-01T00:45:27.931Z,7.16
2022-10-01T00:50:33.196Z,7.26
2022-10-01T00:55:39.833Z,7.22
2022-10-01T01:00:42.955Z,7.11
2022-10-01T01:05:46.288Z,7.12
2022-10-01T01:11:01.734Z,7.16
2022-10-01T01:16:07.412Z,7.19
2022-10-01T01:21:14.993Z,7.08
2022-10-01T01:26:48.331Z,7.06
2022-10-01T01:31:50.294Z,7.26
2022-10-01T01:37:04.659Z,7.26
2022-10-01T01:42:13.533Z,7.19
2022-10-01T01:47:16.657Z,7.28
2022-10-01T01:52:18.543Z,7.25
2022-10-01T01:57:21.215Z,7.29
2022-10-01T02:02:28.415Z,7.31
2022-10-01T02:07:30.053Z,7.29
2022-10-01T02:13:01.740Z,7.32
2022-10-01T02:18:18.799Z,7.30
2022-10-01T02:23:28.765Z,7.31
2022-10-01T02:28:33.293Z,7.55
2022-10-01T02:33:37.432Z,7.91
2022-10-01T02:38:42.160Z,8.07
2022-10-01T02:44:05.217Z,8.12
2022-10-01T02:49:06.932Z,8.52
2022-10-01T02:54:17.816Z,8.75
2022-10-01T02:59:22.608Z,8.92
2022-10-01T03:04:24.241Z,8.94
2022-10-01T03:09:26.933Z,9.11
2022-10-01T03:14:28.965Z,9.23
2022-10-01T03:19:30.603Z,9.24
2022-10-01T03:24:32.378Z,9.31
2022-10-01T03:29:34.026Z,9.37
2022-10-01T03:34:35.735Z,9.42
2022-10-01T03:39:37.491Z,9.34
2022-10-01T03:44:39.122Z,9.44
2022-10-01T03:49:40.753Z,9.47
2022-10-01T03:54:42.389Z,9.45
2022-10-01T03:59:44.075Z,9.39
2022-10-01T04:04:45.672Z,9.39
2022-10-01T04:09:47.411Z,9.40
2022-10-01T04:14:49.035Z,9.41
2022-10-01T04:19:50.661Z,9.31
2022-10-01T04:24:53.823Z,9.34
2022-10-01T04:29:55.457Z,9.40
2022-10-01T04:34:57.449Z,9.43
2022-10-01T04:40:34.615Z,9.41
2022-10-01T04:45:37.470Z,9.36
2022-10-01T04:50:39.103Z,9.40
2022-10-01T04:55:40.731Z,9.33
2022-10-01T05:00:42.523Z,9.40
2022-10-01T05:05:44.552Z,9.41
2022-10-01T05:10:46.173Z,9.55
2022-10-01T05:15:52.352Z,9.55
2022-10-01T05:20:54.177Z,9.54
2022-10-01T05:25:55.839Z,9.50
2022-10-01T05:31:03.452Z,9.52
2022-10-01T05:36:07.056Z,9.58
2022-10-01T05:41:08.919Z,9.63
2022-10-01T05:46:10.630Z,9.70
2022-10-01T05:51:15.253Z,9.71
2022-10-01T05:56:16.877Z,9.69
2022-10-01T06:01:18.490Z,9.75
2022-10-01T06:06:24.943Z,9.87
2022-10-01T06:11:27.457Z,9.87
2022-10-01T06:16:29.363Z,9.97
2022-10-01T06:21:31.937Z,10.03
2022-10-01T06:26:33.829Z,10.04
2022-10-01T06:32:13.501Z,10.00
2022-10-01T06:37:15.291Z,10.11
2022-10-01T06:42:16.883Z,10.10
2022-10-01T06:47:18.530Z,10.08
2022-10-01T06:52:38.640Z,10.13
2022-10-01T06:57:40.291Z,10.12
2022-10-01T07:02:42.046Z,10.13
2022-10-01T07:07:48.398Z,10.23
2022-10-01T07:12:51.243Z,10.10
2022-10-01T07:17:52.971Z,10.16
2022-10-01T07:22:59.007Z,10.22
2022-10-01T07:28:04.557Z,10.41
2022-10-01T07:33:06.229Z,10.43
2022-10-01T07:38:08.190Z,10.55
2022-10-01T07:43:10.065Z,10.75
2022-10-01T07:48:11.734Z,10.80
2022-10-01T07:53:13.826Z,10.85
2022-10-01T07:58:15.526Z,10.95
2022-10-01T08:03:17.125Z,10.94
2022-10-01T08:08:18.779Z,11.02
2022-10-01T08:13:24.850Z,11.17
2022-10-01T08:18:26.683Z,11.24
2022-10-01T08:23:31.309Z,11.29
2022-10-01T08:28:35.757Z,11.48
2022-10-01T08:33:38.972Z,11.61
2022-10-01T08:38:47.383Z,11.81
2022-10-01T08:43:51.318Z,12.24
2022-10-01T08:49:06.922Z,12.39
2022-10-01T08:54:31.023Z,12.27
2022-10-01T08:59:40.875Z,12.19
2022-10-01T09:04:56.772Z,11.93
2022-10-01T09:10:13.848Z,12.05
2022-10-01T09:15:25.766Z,12.40
2022-10-01T09:20:39.543Z,12.69
2022-10-01T09:25:46.102Z,12.91
2022-10-01T09:31:12.008Z,13.16
2022-10-01T09:36:26.559Z,13.66
2022-10-01T09:41:31.633Z,13.91
2022-10-01T09:46:35.712Z,14.14
2022-10-01T09:51:43.013Z,14.21
2022-10-01T09:56:51.014Z,13.81
2022-10-01T10:02:51.158Z,13.62
2022-10-01T10:08:04.273Z,14.08
2022-10-01T10:13:35.167Z,14.07
2022-10-01T10:18:40.145Z,13.95
2022-10-01T10:23:51.493Z,13.92
2022-10-01T10:28:53.415Z,13.87
2022-10-01T10:34:32.645Z,13.99
2022-10-01T10:39:42.027Z,14.27
2022-10-01T10:44:49.525Z,14.28
2022-10-01T10:49:58.597Z,14.22
2022-10-01T10:55:25.169Z,14.38
2022-10-01T11:00:36.069Z,14.76
2022-10-01T11:05:42.086Z,14.82
2022-10-01T11:11:20.734Z,14.47
2022-10-01T11:16:33.375Z,14.51
2022-10-01T11:21:50.927Z,14.32
2022-10-01T11:26:58.027Z,14.65
2022-10-01T11:32:38.252Z,15.15
2022-10-01T11:38:14.070Z,15.20
2022-10-01T11:43:34.504Z,15.12
2022-10-01T11:48:48.588Z,15.39
2022-10-01T11:53:58.275Z,15.96
2022-10-01T11:59:10.746Z,16.09
2022-10-01T12:04:25.217Z,16.45
2022-10-01T12:09:39.367Z,16.65
2022-10-01T12:14:49.074Z,16.80
2022-10-01T12:19:54.309Z,16.49
2022-10-01T12:25:01.422Z,16.81
2022-10-01T12:30:18.949Z,17.31
2022-10-01T12:35:35.851Z,17.77
2022-10-01T12:41:04.368Z,17.82
2022-10-01T12:46:30.549Z,17.86
2022-10-01T12:51:53.139Z,17.55
2022-10-01T12:57:29.058Z,17.41
2022-10-01T13:03:11.549Z,17.47
2022-10-01T13:08:18.113Z,17.74
2022-10-01T13:13:33.605Z,18.05
2022-10-01T13:18:50.761Z,18.04
2022-10-01T13:24:33.484Z,17.76
2022-10-01T13:29:55.358Z,17.30
2022-10-01T13:35:39.511Z,17.34
2022-10-01T13:40:41.594Z,17.68
2022-10-01T13:45:51.565Z,18.15
2022-10-01T13:51:15.533Z,18.16
2022-10-01T13:56:32.973Z,17.92
2022-10-01T14:01:41.587Z,17.74
2022-10-01T14:06:58.410Z,18.12
2022-10-01T14:12:32.871Z,18.12
2022-10-01T14:17:38.011Z,18.72
2022-10-01T14:23:16.098Z,18.45
2022-10-01T14:28:38.041Z,18.72
2022-10-01T14:33:40.616Z,18.92
2022-10-01T14:38:49.426Z,18.97
2022-10-01T14:43:54.301Z,18.86
2022-10-01T14:49:00.977Z,19.11
2022-10-01T14:54:04.783Z,19.30
2022-10-01T14:59:17.070Z,18.96
2022-10-01T15:04:28.321Z,18.63
2022-10-01T15:09:34.144Z,18.22
2022-10-01T15:14:37.119Z,17.70
2022-10-01T15:19:47.090Z,17.65
2022-10-01T15:24:50.548Z,17.43
2022-10-01T15:29:56.694Z,17.15
2022-10-01T15:35:02.161Z,16.82
2022-10-01T15:40:13.176Z,16.76
2022-10-01T15:45:26.058Z,16.51
2022-10-01T15:50:37.071Z,16.31
2022-10-01T15:55:50.712Z,16.13
2022-10-01T16:01:09.334Z,16.01
2022-10-01T16:06:23.982Z,16.01
2022-10-01T16:11:31.843Z,15.93
2022-10-01T16:16:33.770Z,15.64
2022-10-01T16:21:40.790Z,15.35
2022-10-01T16:26:43.561Z,15.26
2022-10-01T16:31:45.614Z,15.05
2022-10-01T16:36:47.565Z,14.93
2022-10-01T16:42:06.264Z,14.81
2022-10-01T16:47:12.602Z,14.82
2022-10-01T16:52:16.620Z,14.73
2022-10-01T16:57:18.350Z,14.69
2022-10-01T17:02:20.005Z,14.55
2022-10-01T17:07:21.719Z,14.48
2022-10-01T17:12:23.330Z,14.39
2022-10-01T17:17:24.934Z,14.27
2022-10-01T17:22:26.597Z,14.22
2022-10-01T17:27:28.241Z,14.16
2022-10-01T17:32:29.924Z,14.06
2022-10-01T17:37:31.725Z,13.97
2022-10-01T17:42:35.544Z,13.83
2022-10-01T17:47:42.041Z,13.79
2022-10-01T17:52:48.590Z,13.67
2022-10-01T17:57:52.200Z,13.58
2022-10-01T18:02:54.001Z,13.52
2022-10-01T18:07:55.639Z,13.51
2022-10-01T18:13:09.354Z,13.46
2022-10-01T18:19:51.229Z,13.45
2022-10-01T18:23:33.462Z,13.38
2022-10-01T18:28:35.164Z,13.34
2022-10-01T18:33:45.920Z,13.38
2022-10-01T18:38:52.645Z,13.38
2022-10-01T18:43:54.343Z,13.31
2022-10-01T18:49:31.477Z,13.16
2022-10-01T18:54:57.666Z,13.18
2022-10-01T18:59:59.255Z,13.19
2022-10-01T19:05:29.704Z,13.31
2022-10-01T19:11:07.034Z,13.47
2022-10-01T19:16:26.919Z,13.38
2022-10-01T19:21:52.710Z,13.20
2022-10-01T19:27:22.381Z,13.11
2022-10-01T19:32:45.523Z,12.93
2022-10-01T19:38:26.317Z,12.76
2022-10-01T19:43:38.066Z,12.62
2022-10-01T19:48:51.914Z,12.49
2022-10-01T19:54:00.243Z,12.46
2022-10-01T19:59:11.010Z,12.40
2022-10-01T20:04:21.315Z,11.99
2022-10-01T20:09:38.748Z,12.14
2022-10-01T20:15:09.027Z,12.18
2022-10-01T20:20:23.503Z,12.11
2022-10-01T20:25:44.658Z,12.06
2022-10-01T20:31:04.946Z,11.77
2022-10-01T20:36:12.011Z,11.99
2022-10-01T20:41:16.908Z,12.01
2022-10-01T20:46:35.322Z,11.94
2022-10-01T20:51:53.093Z,11.94
2022-10-01T20:57:21.259Z,11.85
2022-10-01T21:02:28.849Z,11.89
2022-10-01T21:07:36.521Z,11.81
2022-10-01T21:12:44.669Z,11.82
2022-10-01T21:18:11.325Z,11.85
2022-10-01T21:23:25.178Z,12.03
2022-10-01T21:28:29.755Z,12.09
2022-10-01T21:33:44.370Z,12.15
2022-10-01T21:39:00.210Z,12.06
2022-10-01T21:44:33.365Z,11.95
2022-10-01T21:49:57.432Z,11.83
2022-10-01T21:55:17.800Z,11.83
2022-10-01T22:00:24.894Z,11.79
2022-10-01T22:05:38.046Z,11.83
2022-10-01T22:10:45.818Z,11.83
2022-10-01T22:15:52.427Z,11.98
2022-10-01T22:20:56.370Z,12.02
2022-10-01T22:26:03.702Z,12.08
2022-10-01T22:31:10.884Z,12.06
2022-10-01T22:36:18.260Z,12.15
2022-10-01T22:41:31.559Z,12.21
2022-10-01T22:47:19.273Z,12.26
2022-10-01T22:52:33.237Z,12.38
2022-10-01T22:57:53.082Z,12.47
2022-10-01T23:03:13.480Z,12.47
2022-10-01T23:08:32.375Z,12.33
2022-10-01T23:13:33.943Z,12.24
2022-10-01T23:18:57.494Z,12.14
2022-10-01T23:24:18.093Z,11.99
2022-10-01T23:29:45.989Z,11.96
2022-10-01T23:35:04.517Z,11.91
2022-10-01T23:40:11.411Z,11.93
2022-10-01T23:45:24.137Z,11.87
2022-10-01T23:50:39.950Z,11.83
2022-10-01T23:56:08.750Z,11.77
